createdAt,value
2018-03-01T00:00:47.656Z,-7.80
2018-03-01T00:03:15.100Z,-7.60
2018-03-01T00:05:42.584Z,-7.40
2018-03-01T00:08:10.030Z,-7.30
2018-03-01T00:10:37.481Z,-7.50
2018-03-01T00:13:04.942Z,-7.50
2018-03-01T00:15:32.428Z,-7.70
2018-03-01T00:17:59.929Z,-7.30
2018-03-01T00:20:27.402Z,-7.20
2018-03-01T00:22:54.857Z,-7.50
2018-03-01T00:25:22.541Z,-7.30
2018-03-01T00:27:50.015Z,-7.10
2018-03-01T00:30:17.455Z,-7.00
2018-03-01T00:32:44.885Z,-7.20
2018-03-01T00:35:12.347Z,-7.20
2018-03-01T00:37:39.856Z,-7.10
2018-03-01T00:40:07.300Z,-7.30
2018-03-01T00:42:34.767Z,-7.40
2018-03-01T00:45:02.200Z,-7.50
2018-03-01T00:47:29.636Z,-7.40
2018-03-01T00:49:57.098Z,-7.10
2018-03-01T00:52:24.537Z,-6.80
2018-03-01T00:54:51.982Z,-6.80
2018-03-01T00:57:19.433Z,-7.20
2018-03-01T00:59:46.904Z,-7.30
2018-03-01T01:02:14.343Z,-7.30
2018-03-01T01:04:42.588Z,-7.30
2018-03-01T01:07:10.216Z,-7.40
2018-03-01T01:09:37.683Z,-7.10
2018-03-01T01:12:05.137Z,-7.10
2018-03-01T01:14:32.601Z,-7.00
2018-03-01T01:17:00.110Z,-7.00
2018-03-01T01:19:28.338Z,-7.70
2018-03-01T01:21:55.788Z,-7.80
2018-03-01T01:24:23.276Z,-7.60
2018-03-01T01:26:50.728Z,-7.50
2018-03-01T01:29:18.190Z,-7.40
2018-03-01T01:31:45.648Z,-7.20
2018-03-01T01:34:13.088Z,-7.00
2018-03-01T01:36:40.547Z,-6.90
2018-03-01T01:39:07.992Z,-6.80
2018-03-01T01:41:35.452Z,-6.80
2018-03-01T01:44:02.917Z,-7.50
2018-03-01T01:46:30.359Z,-7.30
2018-03-01T01:48:57.812Z,-7.50
2018-03-01T01:51:25.331Z,-7.30
2018-03-01T01:53:52.788Z,-7.30
2018-03-01T01:56:20.996Z,-7.10
2018-03-01T01:58:48.456Z,-7.20
2018-03-01T02:01:15.896Z,-7.00
2018-03-01T02:03:43.359Z,-6.70
2018-03-01T02:06:10.835Z,-6.50
2018-03-01T02:08:38.604Z,-6.40
2018-03-01T02:11:06.062Z,-6.70
2018-03-01T02:13:33.676Z,-7.10
2018-03-01T02:16:01.945Z,-7.00
2018-03-01T02:18:29.359Z,-7.10
2018-03-01T02:20:56.811Z,-7.40
2018-03-01T02:23:24.262Z,-7.10
2018-03-01T02:25:51.737Z,-6.70
2018-03-01T02:28:19.199Z,-6.50
2018-03-01T02:30:46.673Z,-6.40
2018-03-01T02:33:14.100Z,-7.10
2018-03-01T02:35:41.563Z,-7.20
2018-03-01T02:38:09.027Z,-7.20
2018-03-01T02:40:36.466Z,-7.20
2018-03-01T02:43:03.920Z,-7.30
2018-03-01T02:45:31.370Z,-7.30
2018-03-01T02:47:58.804Z,-7.30
2018-03-01T02:50:26.273Z,-7.50
2018-03-01T02:52:53.706Z,-7.10
2018-03-01T02:55:21.193Z,-6.70
2018-03-01T02:57:48.647Z,-6.50
2018-03-01T03:00:16.096Z,-6.40
2018-03-01T03:02:43.550Z,-6.40
2018-03-01T03:05:10.984Z,-6.30
2018-03-01T03:07:38.426Z,-6.60
2018-03-01T03:10:05.880Z,-6.60
2018-03-01T03:12:33.315Z,-6.60
2018-03-01T03:15:00.781Z,-6.60
2018-03-01T03:17:28.227Z,-6.50
2018-03-01T03:19:55.704Z,-7.20
2018-03-01T03:22:23.159Z,-7.50
2018-03-01T03:24:50.624Z,-7.40
2018-03-01T03:27:18.075Z,-7.10
2018-03-01T03:29:45.517Z,-7.10
2018-03-01T03:32:12.963Z,-6.90
2018-03-01T03:34:40.418Z,-7.10
2018-03-01T03:37:07.841Z,-7.10
2018-03-01T03:39:36.250Z,-7.30
2018-03-01T03:42:03.681Z,-7.40
2018-03-01T03:44:32.230Z,-7.00
2018-03-01T03:46:59.682Z,-7.10
2018-03-01T03:49:27.115Z,-6.80
2018-03-01T03:51:54.544Z,-7.00
2018-03-01T03:54:22.022Z,-7.10
2018-03-01T03:56:49.483Z,-7.20
2018-03-01T03:59:16.950Z,-7.10
2018-03-01T04:01:44.560Z,-7.00
2018-03-01T04:04:12.031Z,-6.70
2018-03-01T04:06:39.476Z,-6.70
2018-03-01T04:09:06.936Z,-6.50
2018-03-01T04:11:34.377Z,-6.40
2018-03-01T04:14:01.817Z,-6.60
2018-03-01T04:16:29.280Z,-6.90
2018-03-01T04:18:56.720Z,-6.80
2018-03-01T04:21:24.172Z,-7.20
2018-03-01T04:23:51.692Z,-7.60
2018-03-01T04:26:19.132Z,-7.20
2018-03-01T04:28:46.590Z,-7.10
2018-03-01T04:31:14.032Z,-6.70
2018-03-01T04:33:41.489Z,-6.60
2018-03-01T04:36:08.924Z,-6.50
2018-03-01T04:38:36.403Z,-6.50
2018-03-01T04:41:03.864Z,-7.00
2018-03-01T04:43:32.110Z,-7.20
2018-03-01T04:45:59.545Z,-7.20
2018-03-01T04:48:27.015Z,-6.90
2018-03-01T04:50:54.471Z,-7.10
2018-03-01T04:53:21.914Z,-6.70
2018-03-01T04:55:49.372Z,-6.50
2018-03-01T04:58:16.819Z,-6.40
2018-03-01T05:00:44.286Z,-6.20
2018-03-01T05:03:11.738Z,-6.10
2018-03-01T05:05:39.200Z,-6.10
2018-03-01T05:08:06.821Z,-6.00
2018-03-01T05:10:34.265Z,-6.00
2018-03-01T05:13:01.777Z,-6.20
2018-03-01T05:15:29.200Z,-6.60
2018-03-01T05:17:56.656Z,-6.50
2018-03-01T05:20:24.104Z,-6.30
2018-03-01T05:22:52.321Z,-6.40
2018-03-01T05:25:19.774Z,-6.50
2018-03-01T05:27:47.251Z,-6.80
2018-03-01T05:30:14.702Z,-6.50
2018-03-01T05:32:42.150Z,-6.90
2018-03-01T05:35:09.582Z,-6.90
2018-03-01T05:37:37.030Z,-6.60
2018-03-01T05:40:04.487Z,-6.70
2018-03-01T05:42:31.951Z,-7.20
2018-03-01T05:44:59.421Z,-7.00
2018-03-01T05:47:26.863Z,-6.90
2018-03-01T05:49:54.304Z,-6.90
2018-03-01T05:52:21.747Z,-7.00
2018-03-01T05:54:49.195Z,-7.10
2018-03-01T05:57:16.664Z,-7.00
2018-03-01T05:59:44.111Z,-7.10
2018-03-01T06:02:11.564Z,-7.30
2018-03-01T06:04:39.028Z,-7.30
2018-03-01T06:07:06.483Z,-6.90
2018-03-01T06:09:33.924Z,-6.50
2018-03-01T06:12:01.380Z,-6.40
2018-03-01T06:14:29.134Z,-6.10
2018-03-01T06:16:56.569Z,-6.00
2018-03-01T06:19:24.346Z,-5.80
2018-03-01T06:21:51.773Z,-5.80
2018-03-01T06:24:19.209Z,-5.80
2018-03-01T06:26:46.664Z,-5.60
2018-03-01T06:29:14.105Z,-5.50
2018-03-01T06:31:41.580Z,-5.90
2018-03-01T06:34:09.024Z,-5.60
2018-03-01T06:36:36.477Z,-5.40
2018-03-01T06:39:03.943Z,-5.30
2018-03-01T06:41:31.413Z,-5.30
2018-03-01T06:43:58.876Z,-5.30
2018-03-01T06:46:26.325Z,-5.20
2018-03-01T06:48:53.779Z,-5.20
2018-03-01T06:51:21.225Z,-5.30
2018-03-01T06:53:48.681Z,-5.30
2018-03-01T06:56:16.362Z,-5.40
2018-03-01T06:58:43.838Z,-5.70
2018-03-01T07:01:11.348Z,-5.70
2018-03-01T07:03:38.795Z,-5.50
2018-03-01T07:06:06.270Z,-5.80
2018-03-01T07:08:33.721Z,-6.00
2018-03-01T07:11:01.175Z,-6.40
2018-03-01T07:13:28.614Z,-6.30
2018-03-01T07:15:56.147Z,-6.10
2018-03-01T07:18:23.644Z,-5.90
2018-03-01T07:20:51.111Z,-5.50
2018-03-01T07:23:18.568Z,-5.40
2018-03-01T07:25:46.001Z,-5.70
2018-03-01T07:28:13.449Z,-5.40
2018-03-01T07:30:40.885Z,-5.30
2018-03-01T07:33:08.374Z,-5.00
2018-03-01T07:35:35.808Z,-4.90
2018-03-01T07:38:03.284Z,-4.70
2018-03-01T07:40:30.730Z,-4.50
2018-03-01T07:42:58.195Z,-4.50
2018-03-01T07:45:26.372Z,-4.50
2018-03-01T07:47:53.869Z,-4.60
2018-03-01T07:50:21.341Z,-5.10
2018-03-01T07:52:48.870Z,-5.50
2018-03-01T07:55:16.332Z,-5.60
2018-03-01T07:57:43.776Z,-5.60
2018-03-01T08:00:11.234Z,-6.10
2018-03-01T08:02:38.763Z,-6.20
2018-03-01T08:05:06.207Z,-6.40
2018-03-01T08:07:33.662Z,-6.20
2018-03-01T08:10:01.878Z,-5.90
2018-03-01T08:12:29.343Z,-6.00
2018-03-01T08:14:58.213Z,-5.70
2018-03-01T08:17:25.644Z,-5.20
2018-03-01T08:19:53.102Z,-5.60
2018-03-01T08:22:20.534Z,-5.60
2018-03-01T08:24:47.992Z,-5.70
2018-03-01T08:27:15.683Z,-5.80
2018-03-01T08:29:43.123Z,-5.60
2018-03-01T08:32:11.336Z,-5.40
2018-03-01T08:34:38.781Z,-5.50
2018-03-01T08:37:06.244Z,-5.20
2018-03-01T08:39:33.690Z,-4.70
2018-03-01T08:42:01.931Z,-4.70
2018-03-01T08:44:30.154Z,-5.00
2018-03-01T08:46:57.614Z,-5.00
2018-03-01T08:49:25.104Z,-4.70
2018-03-01T08:51:52.573Z,-4.90
2018-03-01T08:54:20.056Z,-4.80
2018-03-01T08:56:47.473Z,-4.80
2018-03-01T08:59:14.932Z,-4.50
2018-03-01T09:01:42.372Z,-4.30
2018-03-01T09:04:09.853Z,-3.80
2018-03-01T09:06:37.299Z,-3.60
2018-03-01T09:09:05.296Z,-3.80
2018-03-01T09:11:32.737Z,-3.90
2018-03-01T09:14:00.193Z,-3.30
2018-03-01T09:16:27.648Z,-3.10
2018-03-01T09:18:55.097Z,-2.50
2018-03-01T09:21:22.808Z,-2.20
2018-03-01T09:23:50.268Z,-1.80
2018-03-01T09:26:17.729Z,-1.50
2018-03-01T09:28:45.183Z,-1.30
2018-03-01T09:31:12.741Z,-1.20
2018-03-01T09:33:40.180Z,-1.00
2018-03-01T09:36:07.645Z,-1.00
2018-03-01T09:38:35.080Z,-1.00
2018-03-01T09:41:02.517Z,-0.80
2018-03-01T09:43:30.025Z,-0.60
2018-03-01T09:45:58.243Z,-0.90
2018-03-01T09:48:25.725Z,-1.00
2018-03-01T09:50:58.953Z,-0.70
2018-03-01T09:53:26.407Z,-0.90
2018-03-01T09:55:53.844Z,-0.40
2018-03-01T09:58:21.303Z,-0.90
2018-03-01T10:00:48.747Z,-0.80
2018-03-01T10:03:16.216Z,-0.80
2018-03-01T10:05:43.660Z,-0.70
2018-03-01T10:08:11.120Z,-0.40
2018-03-01T10:10:39.352Z,-0.20
2018-03-01T10:13:06.813Z,-0.20
2018-03-01T10:15:34.447Z,0.00
2018-03-01T10:18:01.945Z,0.20
2018-03-01T10:20:29.358Z,0.10
2018-03-01T10:22:57.010Z,-0.10
2018-03-01T10:25:24.460Z,0.00
2018-03-01T10:27:52.681Z,-0.10
2018-03-01T10:30:20.125Z,-0.20
2018-03-01T10:32:47.567Z,-0.50
2018-03-01T10:35:15.014Z,-0.30
2018-03-01T10:37:42.468Z,-1.10
2018-03-01T10:40:09.913Z,-1.60
2018-03-01T10:42:38.143Z,-0.80
2018-03-01T10:45:05.659Z,-0.90
2018-03-01T10:47:33.110Z,-0.50
2018-03-01T10:50:01.317Z,-0.20
2018-03-01T10:52:28.778Z,-0.20
2018-03-01T10:54:56.231Z,0.10
2018-03-01T10:57:23.677Z,0.10
2018-03-01T10:59:51.134Z,0.20
2018-03-01T11:02:18.582Z,0.40
2018-03-01T11:04:46.037Z,0.50
2018-03-01T11:07:13.502Z,0.50
2018-03-01T11:09:40.932Z,0.30
2018-03-01T11:12:09.146Z,0.00
2018-03-01T11:14:36.620Z,-0.10
2018-03-01T11:17:04.060Z,0.00
2018-03-01T11:19:31.699Z,0.00
2018-03-01T11:21:59.152Z,0.00
2018-03-01T11:24:26.615Z,-0.10
2018-03-01T11:26:54.071Z,0.00
2018-03-01T11:29:21.531Z,0.00
2018-03-01T11:31:48.983Z,-0.10
2018-03-01T11:34:16.432Z,0.00
2018-03-01T11:36:43.878Z,0.10
2018-03-01T11:39:11.325Z,0.00
2018-03-01T11:41:38.813Z,0.30
2018-03-01T11:44:06.296Z,0.40
2018-03-01T11:46:33.760Z,0.50
2018-03-01T11:49:01.204Z,0.80
2018-03-01T11:51:28.672Z,1.00
2018-03-01T11:53:56.124Z,1.30
2018-03-01T11:56:23.594Z,1.60
2018-03-01T11:58:51.034Z,1.80
2018-03-01T12:01:18.699Z,2.40
2018-03-01T12:03:46.257Z,3.20
2018-03-01T12:06:13.695Z,4.50
2018-03-01T12:08:41.140Z,5.60
2018-03-01T12:11:08.595Z,5.60
2018-03-01T12:13:36.068Z,6.20
2018-03-01T12:16:04.548Z,7.30
2018-03-01T12:18:32.017Z,9.00
2018-03-01T12:20:59.489Z,10.30
2018-03-01T12:23:27.239Z,11.60
2018-03-01T12:25:54.890Z,12.90
2018-03-01T12:28:22.308Z,13.80
2018-03-01T12:30:49.781Z,14.30
2018-03-01T12:33:17.260Z,13.30
2018-03-01T12:35:44.949Z,14.30
2018-03-01T12:38:12.397Z,15.90
2018-03-01T12:40:40.150Z,14.10
2018-03-01T12:43:08.598Z,11.40
2018-03-01T12:45:36.848Z,14.50
2018-03-01T12:48:04.470Z,14.40
2018-03-01T12:50:31.909Z,14.90
2018-03-01T12:52:59.364Z,15.90
2018-03-01T12:55:26.847Z,16.70
2018-03-01T12:57:54.312Z,17.10
2018-03-01T13:00:21.774Z,17.20
2018-03-01T13:02:49.524Z,15.70
2018-03-01T13:05:17.744Z,15.00
2018-03-01T13:07:45.201Z,15.60
2018-03-01T13:10:12.818Z,15.50
2018-03-01T13:12:40.482Z,15.40
2018-03-01T13:15:07.953Z,15.70
2018-03-01T13:17:36.152Z,14.60
2018-03-01T13:20:03.618Z,14.50
2018-03-01T13:22:31.052Z,14.00
2018-03-01T13:24:58.500Z,13.40
2018-03-01T13:27:26.010Z,12.80
2018-03-01T13:29:53.417Z,12.40
2018-03-01T13:32:27.674Z,13.20
2018-03-01T13:35:01.584Z,14.90
2018-03-01T13:37:29.804Z,15.90
2018-03-01T13:39:57.258Z,15.90
2018-03-01T13:42:28.504Z,16.40
2018-03-01T13:44:55.919Z,16.20
2018-03-01T13:47:25.354Z,16.70
2018-03-01T13:49:52.784Z,17.40
2018-03-01T13:52:20.273Z,17.10
2018-03-01T13:54:47.729Z,16.70
2018-03-01T13:57:15.206Z,16.00
2018-03-01T13:59:42.644Z,15.30
2018-03-01T14:02:10.120Z,14.20
2018-03-01T14:04:37.593Z,14.80
2018-03-01T14:07:09.488Z,15.80
2018-03-01T14:09:36.952Z,15.40
2018-03-01T14:12:04.403Z,14.70
2018-03-01T14:14:41.752Z,13.50
2018-03-01T14:17:09.236Z,12.50
2018-03-01T14:19:42.474Z,11.10
2018-03-01T14:22:13.507Z,9.80
2018-03-01T14:24:40.980Z,9.20
2018-03-01T14:27:14.100Z,8.50
2018-03-01T14:29:41.560Z,7.50
2018-03-01T14:32:09.017Z,7.10
2018-03-01T14:34:36.876Z,6.70
2018-03-01T14:37:04.327Z,5.80
2018-03-01T14:39:31.804Z,5.60
2018-03-01T14:41:59.264Z,5.60
2018-03-01T14:44:26.777Z,5.50
2018-03-01T14:46:54.220Z,5.60
2018-03-01T14:49:21.745Z,5.50
2018-03-01T14:51:49.994Z,4.10
2018-03-01T14:54:17.442Z,4.00
2018-03-01T14:56:44.976Z,4.30
2018-03-01T14:59:12.450Z,3.50
2018-03-01T15:01:39.923Z,3.70
2018-03-01T15:04:07.409Z,3.80
2018-03-01T15:06:34.967Z,3.60
2018-03-01T15:09:03.234Z,3.90
2018-03-01T15:11:31.285Z,3.80
2018-03-01T15:13:58.740Z,3.90
2018-03-01T15:16:26.205Z,3.80
2018-03-01T15:18:53.662Z,3.90
2018-03-01T15:21:21.132Z,3.70
2018-03-01T15:23:48.566Z,3.50
2018-03-01T15:26:16.042Z,3.40
2018-03-01T15:28:43.486Z,3.50
2018-03-01T15:31:10.951Z,3.60
2018-03-01T15:33:38.408Z,3.70
2018-03-01T15:36:05.848Z,3.60
2018-03-01T15:38:33.313Z,3.60
2018-03-01T15:41:00.752Z,3.50
2018-03-01T15:43:28.218Z,3.40
2018-03-01T15:45:56.549Z,3.40
2018-03-01T15:48:23.992Z,3.20
2018-03-01T15:50:51.464Z,3.10
2018-03-01T15:53:18.897Z,2.50
2018-03-01T15:55:47.130Z,1.50
2018-03-01T15:58:14.578Z,1.40
2018-03-01T16:00:42.240Z,1.30
2018-03-01T16:03:09.699Z,1.00
2018-03-01T16:05:37.219Z,1.10
2018-03-01T16:08:04.635Z,1.00
2018-03-01T16:10:32.085Z,0.90
2018-03-01T16:12:59.589Z,1.40
2018-03-01T16:15:27.029Z,1.50
2018-03-01T16:17:55.267Z,0.70
2018-03-01T16:20:22.734Z,0.60
2018-03-01T16:22:50.272Z,0.50
2018-03-01T16:25:17.739Z,0.70
2018-03-01T16:27:45.226Z,0.90
2018-03-01T16:30:12.757Z,0.60
2018-03-01T16:32:40.212Z,0.40
2018-03-01T16:35:07.732Z,0.30
2018-03-01T16:37:35.204Z,-0.10
2018-03-01T16:40:02.660Z,-0.40
2018-03-01T16:42:30.136Z,-0.50
2018-03-01T16:44:57.629Z,-0.50
2018-03-01T16:47:25.087Z,-0.30
2018-03-01T16:49:52.565Z,-0.50
2018-03-01T16:52:20.044Z,-0.30
2018-03-01T16:54:47.529Z,-0.20
2018-03-01T16:57:15.002Z,-0.30
2018-03-01T16:59:42.509Z,-0.20
2018-03-01T17:02:09.922Z,-0.20
2018-03-01T17:04:37.373Z,0.00
2018-03-01T17:07:04.831Z,-0.10
2018-03-01T17:09:32.298Z,-0.40
2018-03-01T17:11:59.742Z,-0.50
2018-03-01T17:14:27.210Z,-0.20
2018-03-01T17:16:54.674Z,0.00
2018-03-01T17:19:22.166Z,0.20
2018-03-01T17:21:49.666Z,0.30
2018-03-01T17:24:17.130Z,0.40
2018-03-01T17:26:52.345Z,0.40
2018-03-01T17:29:19.908Z,0.40
2018-03-01T17:31:47.338Z,0.40
2018-03-01T17:34:14.800Z,0.20
2018-03-01T17:36:42.254Z,0.10
2018-03-01T17:39:09.697Z,0.20
2018-03-01T17:41:37.166Z,0.20
2018-03-01T17:44:04.626Z,0.30
2018-03-01T17:46:32.063Z,0.00
2018-03-01T17:48:59.645Z,-0.30
2018-03-01T17:51:27.161Z,0.00
2018-03-01T17:53:54.637Z,0.10
2018-03-01T17:56:22.112Z,-0.10
2018-03-01T17:58:49.588Z,-0.10
2018-03-01T18:01:17.026Z,0.10
2018-03-01T18:03:44.497Z,0.00
2018-03-01T18:06:11.937Z,0.00
2018-03-01T18:08:40.166Z,-0.20
2018-03-01T18:11:07.646Z,-0.30
2018-03-01T18:13:35.101Z,-0.50
2018-03-01T18:16:02.577Z,-0.60
2018-03-01T18:18:30.037Z,-0.50
2018-03-01T18:20:57.487Z,-0.60
2018-03-01T18:23:24.943Z,-0.70
2018-03-01T18:25:53.170Z,-1.10
2018-03-01T18:28:20.619Z,-1.20
2018-03-01T18:30:48.117Z,-1.00
2018-03-01T18:33:15.606Z,-1.30
2018-03-01T18:35:43.072Z,-1.50
2018-03-01T18:38:10.528Z,-1.30
2018-03-01T18:40:38.211Z,-1.20
2018-03-01T18:43:05.644Z,-1.30
2018-03-01T18:45:33.096Z,-1.20
2018-03-01T18:48:00.556Z,-1.20
2018-03-01T18:50:28.772Z,-1.30
2018-03-01T18:53:12.455Z,-1.40
2018-03-01T18:55:39.912Z,-1.00
2018-03-01T18:58:07.384Z,-1.40
2018-03-01T19:00:34.824Z,-1.60
2018-03-01T19:03:03.084Z,-1.70
2018-03-01T19:05:30.532Z,-1.80
2018-03-01T19:07:57.998Z,-1.50
2018-03-01T19:10:25.429Z,-1.50
2018-03-01T19:12:53.584Z,-1.80
2018-03-01T19:15:21.032Z,-1.70
2018-03-01T19:17:48.622Z,-1.60
2018-03-01T19:20:16.077Z,-2.20
2018-03-01T19:22:43.528Z,-2.00
2018-03-01T19:25:11.777Z,-1.60
2018-03-01T19:27:39.200Z,-1.70
2018-03-01T19:30:07.418Z,-2.00
2018-03-01T19:32:34.856Z,-2.10
2018-03-01T19:35:02.317Z,-1.80
2018-03-01T19:37:29.817Z,-1.70
2018-03-01T19:39:57.276Z,-1.60
2018-03-01T19:42:24.728Z,-1.50
2018-03-01T19:44:52.713Z,-2.10
2018-03-01T19:47:20.203Z,-1.90
2018-03-01T19:49:47.714Z,-1.80
2018-03-01T19:52:15.162Z,-1.90
2018-03-01T19:54:42.608Z,-1.80
2018-03-01T19:57:10.063Z,-1.80
2018-03-01T19:59:37.528Z,-2.00
2018-03-01T20:02:04.978Z,-2.10
2018-03-01T20:04:32.435Z,-2.10
2018-03-01T20:06:59.884Z,-2.10
2018-03-01T20:09:27.328Z,-2.30
2018-03-01T20:11:54.793Z,-2.20
2018-03-01T20:14:22.220Z,-2.00
2018-03-01T20:16:50.441Z,-1.70
2018-03-01T20:19:17.945Z,-1.80
2018-03-01T20:21:45.397Z,-1.80
2018-03-01T20:24:13.013Z,-1.80
2018-03-01T20:26:40.448Z,-1.70
2018-03-01T20:29:07.891Z,-1.70
2018-03-01T20:31:35.337Z,-1.60
2018-03-01T20:34:02.769Z,-1.60
2018-03-01T20:36:30.224Z,-1.60
2018-03-01T20:38:57.694Z,-1.60
2018-03-01T20:41:25.155Z,-1.70
2018-03-01T20:43:52.584Z,-1.60
2018-03-01T20:46:20.101Z,-1.70
2018-03-01T20:48:47.582Z,-1.70
2018-03-01T20:51:14.995Z,-1.70
2018-03-01T20:53:42.448Z,-1.70
2018-03-01T20:56:09.918Z,-2.20
2018-03-01T20:58:37.375Z,-2.10
2018-03-01T21:01:04.832Z,-2.10
2018-03-01T21:03:33.158Z,-2.00
2018-03-01T21:06:00.612Z,-2.00
2018-03-01T21:08:28.140Z,-2.00
2018-03-01T21:10:55.602Z,-2.20
2018-03-01T21:13:23.085Z,-2.20
2018-03-01T21:15:50.516Z,-2.10
2018-03-01T21:18:18.004Z,-2.20
2018-03-01T21:20:45.436Z,-2.00
2018-03-01T21:23:12.921Z,-2.10
2018-03-01T21:25:40.388Z,-2.10
2018-03-01T21:28:09.337Z,-2.50
2018-03-01T21:30:36.773Z,-2.60
2018-03-01T21:33:04.267Z,-2.40
2018-03-01T21:35:31.708Z,-2.30
2018-03-01T21:37:59.148Z,-2.40
2018-03-01T21:40:26.634Z,-2.60
2018-03-01T21:42:54.069Z,-2.50
2018-03-01T21:45:21.553Z,-2.60
2018-03-01T21:47:48.996Z,-2.60
2018-03-01T21:50:16.428Z,-2.80
2018-03-01T21:52:43.901Z,-2.80
2018-03-01T21:55:11.335Z,-2.60
2018-03-01T21:57:38.814Z,-2.70
2018-03-01T22:00:06.297Z,-3.10
2018-03-01T22:02:33.751Z,-3.00
2018-03-01T22:05:01.210Z,-3.40
2018-03-01T22:07:28.644Z,-3.10
2018-03-01T22:09:56.104Z,-3.00
2018-03-01T22:12:23.590Z,-2.90
2018-03-01T22:14:51.020Z,-2.80
2018-03-01T22:17:18.515Z,-2.80
2018-03-01T22:19:45.952Z,-3.10
2018-03-01T22:22:13.404Z,-3.20
2018-03-01T22:24:40.840Z,-3.30
2018-03-01T22:27:08.305Z,-3.10
2018-03-01T22:29:35.764Z,-2.90
2018-03-01T22:32:03.212Z,-2.90
2018-03-01T22:34:30.668Z,-2.70
2018-03-01T22:36:58.135Z,-2.70
2018-03-01T22:39:25.577Z,-2.70
2018-03-01T22:41:53.024Z,-2.80
2018-03-01T22:44:20.480Z,-2.70
2018-03-01T22:46:48.680Z,-3.20
2018-03-01T22:49:16.135Z,-3.30
2018-03-01T22:51:43.581Z,-3.10
2018-03-01T22:54:11.477Z,-3.00
2018-03-01T22:56:39.639Z,-2.80
2018-03-01T22:59:07.071Z,-2.90
2018-03-01T23:01:34.530Z,-3.10
2018-03-01T23:04:01.969Z,-3.50
2018-03-01T23:06:30.201Z,-3.30
2018-03-01T23:08:57.639Z,-3.20
2018-03-01T23:11:25.095Z,-3.30
2018-03-01T23:13:52.624Z,-3.20
2018-03-01T23:16:20.080Z,-3.20
2018-03-01T23:18:47.505Z,-3.20
2018-03-01T23:21:15.119Z,-3.20
2018-03-01T23:23:42.568Z,-3.20
2018-03-01T23:26:10.021Z,-3.10
2018-03-01T23:28:37.476Z,-3.20
2018-03-01T23:31:06.520Z,-3.40
2018-03-01T23:33:34.584Z,-3.50
2018-03-01T23:36:02.036Z,-3.40
2018-03-01T23:38:29.520Z,-3.60
2018-03-01T23:40:56.962Z,-3.60
2018-03-01T23:43:24.412Z,-3.60
2018-03-01T23:45:51.849Z,-3.60
2018-03-01T23:48:19.308Z,-3.60
2018-03-01T23:50:46.764Z,-3.50
2018-03-01T23:53:14.220Z,-3.50
2018-03-01T23:55:41.669Z,-3.40
2018-03-01T23:58:09.110Z,-3.50
